Time;durP1;ratioP1;P1;durP2;ratioP2;P2;SDS_P1;SDS_P2;PMS_P1;PMS_P2;Temp;Humidity;BMP_temperature;BMP_pressure;BME280_temperature;BME280_humidity;BME280_pressure;Samples;Min_cycle;Max_cycle;Signal;HPM_P1;HPM_P2
2021/12/11 00:02:08;;;;;;;29.23;14.27;;;0.10;99.90;;;;;;5092637;28;20196;-72
2021/12/11 00:04:38;;;;;;;25.30;13.53;;;0.00;99.90;;;;;;5091769;28;20052;-72
2021/12/11 00:07:08;;;;;;;30.67;14.63;;;0.10;99.90;;;;;;5092445;28;20044;-73
2021/12/11 00:09:41;;;;;;;20.33;12.87;;;0.10;99.90;;;;;;5092378;28;20048;-73
2021/12/11 00:12:12;;;;;;;23.57;12.83;;;0.10;99.90;;;;;;5092217;28;20465;-73
2021/12/11 00:14:41;;;;;;;26.35;14.93;;;0.10;99.90;;;;;;5091824;28;20051;-74
2021/12/11 00:17:08;;;;;;;24.90;12.00;;;0.00;99.90;;;;;;5092517;28;20044;-74
2021/12/11 00:19:37;;;;;;;25.37;13.83;;;0.00;99.90;;;;;;5091863;28;20393;-74
2021/12/11 00:22:08;;;;;;;19.90;12.27;;;0.00;99.90;;;;;;5092049;28;20040;-73
2021/12/11 00:24:37;;;;;;;23.07;13.73;;;0.00;99.90;;;;;;5091959;28;20437;-72
2021/12/11 00:27:08;;;;;;;24.27;12.53;;;-0.10;99.90;;;;;;5091780;28;20070;-73
2021/12/11 00:29:36;;;;;;;23.47;13.83;;;0.00;99.90;;;;;;5092351;28;20044;-73
2021/12/11 00:32:08;;;;;;;26.40;13.63;;;-0.10;99.90;;;;;;5092020;28;20298;-74
2021/12/11 00:34:37;;;;;;;23.67;11.37;;;-0.10;99.90;;;;;;5091378;28;20056;-74
2021/12/11 00:37:06;;;;;;;21.33;14.10;;;0.00;99.90;;;;;;5091759;28;20044;-72
2021/12/11 00:39:38;;;;;;;16.37;11.03;;;-0.10;99.90;;;;;;5092097;28;20048;-74
2021/12/11 00:42:08;;;;;;;;;;;-0.20;99.90;;;;;;5092230;28;20450;-73
2021/12/11 00:44:38;;;;;;;23.10;11.17;;;-0.30;99.90;;;;;;5091421;28;19920;-73
2021/12/11 00:47:11;;;;;;;28.10;13.07;;;-0.20;99.90;;;;;;5091815;28;20098;-74
2021/12/11 00:49:46;;;;;;;29.70;12.87;;;-0.30;99.90;;;;;;5092158;28;20047;-70
2021/12/11 00:52:13;;;;;;;24.20;14.07;;;-0.20;99.90;;;;;;5092306;28;20102;-70
2021/12/11 00:54:41;;;;;;;20.73;10.93;;;-0.20;99.90;;;;;;5091665;28;20113;-73
2021/12/11 00:57:11;;;;;;;17.57;11.43;;;-0.30;99.90;;;;;;5092186;28;20044;-72
2021/12/11 00:59:38;;;;;;;15.67;11.40;;;-0.20;99.90;;;;;;5092215;28;20040;-72
2021/12/11 01:02:06;;;;;;;26.17;12.73;;;-0.10;99.90;;;;;;5091844;28;20049;-71
2021/12/11 01:04:41;;;;;;;28.50;11.70;;;-0.10;99.90;;;;;;5091358;28;20051;-73
2021/12/11 01:07:16;;;;;;;25.30;13.00;;;-0.20;99.90;;;;;;5091530;28;20044;-73
2021/12/11 01:09:48;;;;;;;20.30;13.13;;;-0.10;99.90;;;;;;5091547;28;20072;-73
2021/12/11 01:12:23;;;;;;;24.20;12.73;;;-0.10;99.90;;;;;;5091518;28;20048;-72
2021/12/11 01:14:55;;;;;;;19.63;11.23;;;-0.10;99.90;;;;;;5091076;28;20135;-73
2021/12/11 01:17:29;;;;;;;;;;;-0.10;99.90;;;;;;5092248;28;20048;-72
2021/12/11 01:20:00;;;;;;;19.13;11.93;;;-0.10;99.90;;;;;;5091481;28;19924;-75
2021/12/11 01:22:33;;;;;;;20.83;11.05;;;-0.10;99.90;;;;;;5091457;28;20044;-73
2021/12/11 01:25:02;;;;;;;18.47;11.63;;;-0.20;99.90;;;;;;5090727;28;20488;-72
2021/12/11 01:27:30;;;;;;;25.37;14.93;;;-0.20;99.90;;;;;;5091423;28;20044;-73
2021/12/11 01:29:59;;;;;;;16.80;10.37;;;-0.20;99.90;;;;;;5091376;28;20059;-73
2021/12/11 01:32:28;;;;;;;20.43;12.20;;;-0.20;99.90;;;;;;5092747;28;20048;-74
2021/12/11 01:34:55;;;;;;;20.10;11.13;;;-0.10;99.90;;;;;;5094670;28;20044;-73
2021/12/11 01:37:22;;;;;;;17.70;13.23;;;-0.10;99.90;;;;;;5095160;28;20078;-73
2021/12/11 01:39:51;;;;;;;19.23;11.53;;;-0.10;99.90;;;;;;5095289;28;20105;-73
2021/12/11 01:42:21;;;;;;;30.70;17.97;;;-0.10;99.90;;;;;;5095253;28;20097;-73
2021/12/11 01:44:51;;;;;;;23.57;13.27;;;-0.20;99.90;;;;;;5094581;28;20040;-73
2021/12/11 01:47:21;;;;;;;27.57;14.77;;;0.00;99.90;;;;;;5095141;28;20085;-72
2021/12/11 01:49:51;;;;;;;24.50;13.23;;;0.00;99.90;;;;;;5094880;28;20069;-73
2021/12/11 01:52:33;;;;;;;27.80;13.23;;;0.00;99.90;;;;;;5094993;28;20110;-73
2021/12/11 01:55:00;;;;;;;;;;;-0.10;99.90;;;;;;5094666;28;20047;-73
2021/12/11 01:57:29;;;;;;;17.73;11.10;;;-0.10;99.90;;;;;;5094820;28;20342;-73
2021/12/11 02:00:00;;;;;;;21.47;12.33;;;-0.10;99.90;;;;;;5094800;28;20101;-73
2021/12/11 02:02:30;;;;;;;26.37;12.43;;;-0.10;99.90;;;;;;5094816;28;20089;-72
2021/12/11 02:04:57;;;;;;;28.57;12.80;;;-0.10;99.90;;;;;;5094258;28;20294;-71
2021/12/11 02:07:27;;;;;;;41.47;13.87;;;-0.20;99.90;;;;;;5094586;28;20056;-72
2021/12/11 02:09:58;;;;;;;17.70;10.53;;;-0.20;99.90;;;;;;5094558;28;20056;-72
2021/12/11 02:12:30;;;;;;;25.17;12.50;;;-0.20;99.90;;;;;;5094682;28;20063;-71
2021/12/11 02:15:01;;;;;;;23.50;12.83;;;-0.10;99.90;;;;;;5092681;28;20488;-72
2021/12/11 02:17:32;;;;;;;16.30;9.43;;;0.00;99.90;;;;;;5094716;28;20044;-71
2021/12/11 02:20:04;;;;;;;21.30;10.67;;;0.00;99.90;;;;;;5094533;28;20052;-73
2021/12/11 02:22:37;;;;;;;21.67;12.47;;;0.10;99.90;;;;;;5094434;28;20052;-73
2021/12/11 02:25:11;;;;;;;25.57;12.93;;;0.00;99.90;;;;;;5093752;28;20553;-73
2021/12/11 02:27:42;;;;;;;20.73;11.50;;;0.00;99.90;;;;;;5094353;28;20063;-71
2021/12/11 02:30:15;;;;;;;;;;;0.00;99.90;;;;;;5094834;28;20051;-73
2021/12/11 02:32:46;;;;;;;17.90;11.87;;;0.00;99.90;;;;;;5094211;28;19920;-73
2021/12/11 02:35:17;;;;;;;20.35;11.55;;;0.10;99.90;;;;;;5093529;28;20078;-73
2021/12/11 02:37:51;;;;;;;21.53;12.60;;;0.00;99.90;;;;;;5093938;28;20047;-72
2021/12/11 02:40:26;;;;;;;24.63;12.13;;;0.00;99.90;;;;;;5094187;28;20044;-75
2021/12/11 02:42:57;;;;;;;20.80;13.03;;;0.00;99.90;;;;;;5093991;28;20044;-73
2021/12/11 02:45:30;;;;;;;17.48;9.85;;;0.00;99.90;;;;;;5093470;28;20081;-73
2021/12/11 02:48:00;;;;;;;18.87;10.60;;;0.00;99.90;;;;;;5093776;28;20101;-72
2021/12/11 02:50:30;;;;;;;20.70;11.07;;;0.00;99.90;;;;;;5093701;28;20484;-73
2021/12/11 02:53:02;;;;;;;38.17;10.93;;;0.00;99.90;;;;;;5093915;28;20454;-74
2021/12/11 02:55:34;;;;;;;15.83;9.97;;;-0.10;99.90;;;;;;5093067;28;20052;-73
2021/12/11 02:58:03;;;;;;;;;;;-0.10;99.90;;;;;;5094214;28;20048;-73
2021/12/11 03:00:33;;;;;;;16.67;9.53;;;-0.20;99.90;;;;;;5093593;28;20367;-72
2021/12/11 03:03:04;;;;;;;13.80;7.57;;;-0.20;99.90;;;;;;5093818;28;20044;-73
2021/12/11 03:05:39;;;;;;;14.45;8.65;;;-0.10;99.90;;;;;;5093070;28;20044;-74
2021/12/11 03:08:11;;;;;;;22.70;11.30;;;-0.10;99.90;;;;;;5093582;28;20052;-73
2021/12/11 03:10:38;;;;;;;;;;;-0.10;99.90;;;;;;5094260;28;20040;-73
2021/12/11 03:13:05;;;;;;;22.10;12.93;;;-0.20;99.90;;;;;;5093762;28;19977;-72
2021/12/11 03:15:33;;;;;;;14.87;9.40;;;-0.20;99.90;;;;;;5092737;28;20104;-73
2021/12/11 03:18:00;;;;;;;14.80;9.07;;;-0.20;99.90;;;;;;5093405;28;20048;-70
2021/12/11 03:20:27;;;;;;;21.67;10.53;;;-0.30;99.90;;;;;;5093255;28;20056;-73
2021/12/11 03:22:54;;;;;;;21.03;8.90;;;-0.20;99.90;;;;;;5093231;28;20040;-72
2021/12/11 03:25:26;;;;;;;16.30;9.83;;;-0.30;99.90;;;;;;5092713;28;20445;-72
2021/12/11 03:27:53;;;;;;;22.38;12.25;;;-0.30;99.90;;;;;;5092921;28;20040;-73
2021/12/11 03:30:23;;;;;;;20.00;10.80;;;-0.30;99.90;;;;;;5093147;28;20116;-73
2021/12/11 03:32:52;;;;;;;12.67;8.53;;;-0.30;99.90;;;;;;5093138;28;20117;-74
2021/12/11 03:35:19;;;;;;;16.67;9.80;;;-0.30;99.90;;;;;;5092444;28;20173;-73
2021/12/11 03:37:46;;;;;;;17.70;10.33;;;-0.30;99.90;;;;;;5092779;28;20621;-73
2021/12/11 03:40:15;;;;;;;22.33;11.87;;;-0.30;99.90;;;;;;5092713;28;20541;-72
2021/12/11 03:42:45;;;;;;;24.90;12.23;;;-0.40;99.90;;;;;;5093149;28;20093;-71
2021/12/11 03:45:15;;;;;;;16.20;10.40;;;-0.40;99.90;;;;;;5092347;28;20094;-73
2021/12/11 03:47:45;;;;;;;13.70;8.10;;;-0.40;99.90;;;;;;5092666;28;20519;-72
2021/12/11 03:50:14;;;;;;;19.60;11.37;;;-0.30;99.90;;;;;;5092775;28;20124;-73
2021/12/11 03:52:42;;;;;;;17.63;8.73;;;-0.30;99.90;;;;;;5092638;28;20047;-72
2021/12/11 03:55:10;;;;;;;21.73;14.40;;;-0.20;99.90;;;;;;5091805;28;20079;-73
2021/12/11 03:57:37;;;;;;;21.20;13.20;;;-0.30;99.90;;;;;;5092506;28;20044;-73
2021/12/11 04:00:12;;;;;;;17.50;9.87;;;-0.30;99.90;;;;;;5092417;28;20415;-73
2021/12/11 04:02:39;;;;;;;22.87;11.30;;;-0.30;99.90;;;;;;5092472;28;20070;-73
2021/12/11 04:05:09;;;;;;;13.33;10.13;;;-0.30;99.90;;;;;;5091795;28;20086;-73
2021/12/11 04:07:40;;;;;;;32.87;11.67;;;-0.20;99.90;;;;;;5092244;28;20133;-74
2021/12/11 04:10:10;;;;;;;16.33;8.30;;;-0.20;99.90;;;;;;5092540;28;20048;-74
2021/12/11 04:12:37;;;;;;;20.23;11.83;;;-0.30;99.90;;;;;;5092490;28;20048;-72
2021/12/11 04:15:08;;;;;;;20.60;8.87;;;-0.30;99.90;;;;;;5091745;28;20052;-74
2021/12/11 04:17:35;;;;;;;26.92;10.80;;;-0.30;99.90;;;;;;5092370;28;20048;-73
2021/12/11 04:20:09;;;;;;;16.50;9.47;;;-0.30;99.90;;;;;;5092100;28;20106;-72
2021/12/11 04:22:36;;;;;;;16.80;7.27;;;-0.30;99.90;;;;;;5092260;28;20101;-73
2021/12/11 04:25:04;;;;;;;21.60;11.30;;;-0.50;99.90;;;;;;5091739;28;20040;-73
2021/12/11 04:27:31;;;;;;;18.50;10.67;;;-0.40;99.90;;;;;;5091959;28;20048;-74
2021/12/11 04:29:58;;;;;;;17.13;10.70;;;-0.40;99.90;;;;;;5092005;28;20032;-73
2021/12/11 04:32:28;;;;;;;21.23;12.40;;;-0.30;99.90;;;;;;5091753;28;20484;-73
2021/12/11 04:34:55;;;;;;;19.58;11.15;;;-0.30;99.90;;;;;;5091598;28;20044;-73
2021/12/11 04:37:27;;;;;;;27.03;9.90;;;-0.30;99.90;;;;;;5092197;28;20044;-71
2021/12/11 04:39:59;;;;;;;20.75;9.88;;;-0.20;99.90;;;;;;5092047;28;20055;-72
2021/12/11 04:42:39;;;;;;;15.77;9.27;;;-0.10;99.90;;;;;;5092088;28;20052;-72
2021/12/11 04:45:08;;;;;;;17.30;9.87;;;-0.10;99.90;;;;;;5091268;28;20040;-71
2021/12/11 04:47:42;;;;;;;20.57;10.63;;;-0.20;99.90;;;;;;5091788;28;20040;-71
2021/12/11 04:50:21;;;;;;;19.17;10.77;;;-0.20;99.90;;;;;;5091683;28;20506;-72
2021/12/11 04:52:50;;;;;;;31.77;10.60;;;-0.20;99.90;;;;;;5091740;28;20055;-72
2021/12/11 04:55:29;;;;;;;16.80;11.33;;;-0.20;99.90;;;;;;5090953;28;20048;-72
2021/12/11 04:58:23;;;;;;;12.30;7.17;;;-0.20;99.90;;;;;;5091901;28;20044;-73
2021/12/11 05:01:02;;;;;;;16.30;11.00;;;-0.20;99.90;;;;;;5091684;28;20044;-72
2021/12/11 05:03:51;;;;;;;19.87;10.60;;;-0.20;99.90;;;;;;5091601;28;20047;-72
2021/12/11 05:06:30;;;;;;;23.27;11.60;;;-0.20;99.90;;;;;;5091034;28;20595;-73
2021/12/11 05:11:52;;;;;;;13.83;8.70;;;-0.20;99.90;;;;;;5077521;28;20040;-72
2021/12/11 05:14:23;;;;;;;19.80;12.63;;;-0.20;99.90;;;;;;5095696;28;20454;-72
2021/12/11 05:16:49;;;;;;;18.47;9.00;;;-0.20;99.90;;;;;;5095676;28;20083;-75
2021/12/11 05:19:18;;;;;;;14.73;9.03;;;-0.20;99.90;;;;;;5095872;28;20078;-74
2021/12/11 05:21:45;;;;;;;12.63;6.87;;;-0.30;99.90;;;;;;5095554;28;20133;-72
2021/12/11 05:24:12;;;;;;;13.73;8.53;;;-0.20;99.90;;;;;;5094945;28;20499;-72
2021/12/11 05:26:39;;;;;;;17.13;11.93;;;-0.20;99.90;;;;;;5094959;28;20097;-71
2021/12/11 05:29:07;;;;;;;19.70;10.70;;;-0.10;99.90;;;;;;5095496;28;20117;-71
2021/12/11 05:31:34;;;;;;;17.63;9.40;;;-0.10;99.90;;;;;;5095539;28;20044;-74
2021/12/11 05:34:02;;;;;;;19.07;11.00;;;-0.10;99.90;;;;;;5094914;28;20101;-74
2021/12/11 05:36:32;;;;;;;23.40;10.47;;;-0.10;99.90;;;;;;5095185;28;20047;-73
2021/12/11 05:38:59;;;;;;;22.93;11.37;;;-0.10;99.90;;;;;;5095195;28;20044;-74
2021/12/11 05:41:26;;;;;;;26.23;11.30;;;-0.10;99.90;;;;;;5095098;28;20553;-73
2021/12/11 05:43:54;;;;;;;19.73;8.93;;;-0.20;99.90;;;;;;5095176;28;20040;-72
2021/12/11 05:46:20;;;;;;;34.10;11.60;;;-0.20;99.90;;;;;;5094709;28;20044;-74
2021/12/11 05:48:51;;;;;;;15.30;7.63;;;-0.40;99.90;;;;;;5095130;28;20048;-74
2021/12/11 05:51:21;;;;;;;21.97;11.27;;;-0.50;99.90;;;;;;5095031;28;20089;-74
2021/12/11 05:53:53;;;;;;;17.43;9.70;;;-0.60;99.90;;;;;;5094650;28;20085;-74
2021/12/11 05:56:20;;;;;;;18.58;10.70;;;-0.50;99.90;;;;;;5095745;28;20044;-74
2021/12/11 05:58:56;;;;;;;15.93;9.97;;;-0.50;99.90;;;;;;5094820;28;20044;-74
2021/12/11 06:01:27;;;;;;;14.87;7.50;;;-0.50;99.90;;;;;;5095444;28;20048;-73
2021/12/11 06:03:55;;;;;;;24.35;10.13;;;-0.40;99.90;;;;;;5094930;28;20109;-71
2021/12/11 06:06:21;;;;;;;18.10;10.70;;;-0.30;99.90;;;;;;5094888;28;20056;-72
2021/12/11 06:08:50;;;;;;;18.37;10.90;;;-0.30;99.90;;;;;;5094791;28;20047;-72
2021/12/11 06:11:17;;;;;;;14.40;9.27;;;-0.40;99.90;;;;;;5095590;28;20044;-72
2021/12/11 06:13:44;;;;;;;24.30;10.93;;;-0.40;99.90;;;;;;5095140;28;20101;-71
2021/12/11 06:16:11;;;;;;;19.07;10.37;;;-0.40;99.90;;;;;;5094548;28;20044;-72
2021/12/11 06:18:38;;;;;;;20.13;11.80;;;-0.30;99.90;;;;;;5094782;28;20044;-72
2021/12/11 06:21:05;;;;;;;21.93;11.53;;;-0.20;99.90;;;;;;5094762;28;20090;-71
2021/12/11 06:23:32;;;;;;;16.53;9.83;;;-0.30;99.90;;;;;;5094819;28;20458;-72
2021/12/11 06:26:00;;;;;;;16.50;8.80;;;-0.20;99.90;;;;;;5094054;28;20097;-72
2021/12/11 06:28:28;;;;;;;15.87;8.40;;;-0.30;99.90;;;;;;5094317;28;20051;-73
2021/12/11 06:30:57;;;;;;;16.20;9.67;;;-0.30;99.90;;;;;;5094120;28;20051;-73
2021/12/11 06:33:25;;;;;;;24.07;10.73;;;-0.30;99.90;;;;;;5094026;28;20101;-72
2021/12/11 06:35:56;;;;;;;15.17;7.50;;;-0.40;99.90;;;;;;5093828;28;20446;-72
2021/12/11 06:38:25;;;;;;;20.83;9.77;;;-0.50;99.90;;;;;;5094109;28;20052;-72
2021/12/11 06:40:53;;;;;;;19.53;9.57;;;-0.40;99.90;;;;;;5094086;28;20047;-72
2021/12/11 06:43:21;;;;;;;17.10;9.50;;;-0.40;99.90;;;;;;5094030;28;20109;-72
2021/12/11 06:45:48;;;;;;;19.10;11.27;;;-0.40;99.90;;;;;;5093288;28;20098;-72
2021/12/11 06:48:17;;;;;;;16.47;9.93;;;-0.40;99.90;;;;;;5093958;28;20097;-72
2021/12/11 06:50:44;;;;;;;25.93;10.13;;;-0.50;99.90;;;;;;5093975;28;20040;-71
2021/12/11 06:53:15;;;;;;;14.77;8.77;;;-0.40;99.90;;;;;;5093740;28;20040;-72
2021/12/11 06:55:42;;;;;;;22.40;9.43;;;-0.40;99.90;;;;;;5093371;28;20466;-72
2021/12/11 06:58:09;;;;;;;19.93;10.50;;;-0.40;99.90;;;;;;5093550;28;20294;-72
2021/12/11 07:00:37;;;;;;;30.00;11.67;;;-0.40;99.90;;;;;;5093883;28;20097;-75
2021/12/11 07:03:03;;;;;;;17.70;8.73;;;-0.50;99.90;;;;;;5093719;28;20419;-73
2021/12/11 07:05:31;;;;;;;14.27;8.50;;;-0.50;99.90;;;;;;5093301;28;20094;-74
2021/12/11 07:07:58;;;;;;;19.23;10.40;;;-0.50;99.90;;;;;;5093500;28;20435;-74
2021/12/11 07:10:25;;;;;;;19.73;11.07;;;-0.50;99.90;;;;;;5093508;28;20115;-74
2021/12/11 07:12:52;;;;;;;20.23;11.33;;;-0.50;99.90;;;;;;5093359;28;20044;-73
2021/12/11 07:15:19;;;;;;;23.33;10.73;;;-0.40;99.90;;;;;;5092730;28;20044;-74
2021/12/11 07:17:47;;;;;;;18.23;9.10;;;-0.50;99.90;;;;;;5093457;28;20044;-74
2021/12/11 07:20:16;;;;;;;22.60;11.60;;;-0.50;99.90;;;;;;5093395;28;20048;-74
2021/12/11 07:22:43;;;;;;;15.77;8.40;;;-0.60;99.90;;;;;;5093169;28;20546;-73
2021/12/11 07:25:16;;;;;;;17.30;8.27;;;-0.50;99.90;;;;;;5092569;28;20040;-73
2021/12/11 07:27:43;;;;;;;9.77;7.77;;;-0.60;99.90;;;;;;5093432;28;20044;-73
2021/12/11 07:30:10;;;;;;;20.07;9.33;;;-0.50;99.90;;;;;;5092126;28;20040;-72
2021/12/11 07:32:37;;;;;;;17.07;10.30;;;-0.50;99.90;;;;;;5093084;28;20051;-73
2021/12/11 07:35:07;;;;;;;18.23;9.47;;;-0.50;99.90;;;;;;5092550;28;20060;-73
2021/12/11 07:37:33;;;;;;;18.93;13.83;;;-0.50;99.90;;;;;;5092943;28;20502;-73
2021/12/11 07:40:00;;;;;;;17.40;8.43;;;-0.60;99.90;;;;;;5092781;28;20097;-73
2021/12/11 07:42:27;;;;;;;29.90;9.67;;;-0.60;99.90;;;;;;5093102;28;20040;-73
2021/12/11 07:44:53;;;;;;;22.33;9.53;;;-0.70;99.90;;;;;;5092224;28;20550;-73
2021/12/11 07:47:20;;;;;;;21.33;12.33;;;-0.60;99.90;;;;;;5092922;28;20070;-74
2021/12/11 07:49:47;;;;;;;16.30;10.90;;;-0.60;99.90;;;;;;5092943;28;20070;-72
2021/12/11 07:52:15;;;;;;;23.20;12.10;;;-0.50;99.90;;;;;;5092687;28;20089;-72
2021/12/11 07:54:41;;;;;;;17.03;8.73;;;-0.40;99.90;;;;;;5091930;28;20048;-74
2021/12/11 07:57:08;;;;;;;16.90;9.90;;;-0.40;99.90;;;;;;5092945;28;20067;-73
2021/12/11 07:59:35;;;;;;;20.00;8.73;;;-0.30;99.90;;;;;;5092494;28;20044;-74
2021/12/11 08:02:01;;;;;;;18.50;9.47;;;-0.20;99.90;;;;;;5092492;28;20461;-74
2021/12/11 08:04:28;;;;;;;15.57;9.60;;;-0.20;99.90;;;;;;5091810;28;20450;-73
2021/12/11 08:06:55;;;;;;;24.47;11.97;;;-0.20;99.90;;;;;;5092304;28;20044;-75
2021/12/11 08:09:26;;;;;;;16.73;10.37;;;-0.20;99.90;;;;;;5092476;28;20052;-73
2021/12/11 08:11:53;;;;;;;10.82;6.57;;;-0.20;99.90;;;;;;5092493;28;20450;-75
2021/12/11 08:14:21;;;;;;;15.87;9.60;;;-0.40;99.90;;;;;;5091846;28;20105;-73
2021/12/11 08:16:49;;;;;;;15.70;9.53;;;-0.40;99.90;;;;;;5092356;28;20125;-74
2021/12/11 08:19:20;;;;;;;17.30;8.80;;;-0.30;99.90;;;;;;5092131;28;20063;-75
2021/12/11 08:21:47;;;;;;;24.77;13.40;;;-0.50;99.90;;;;;;5092203;28;20056;-75
2021/12/11 08:24:15;;;;;;;17.33;8.97;;;-0.40;99.90;;;;;;5091780;28;20052;-74
2021/12/11 08:26:44;;;;;;;12.53;8.07;;;-0.40;99.90;;;;;;5092218;28;20047;-74
2021/12/11 08:29:14;;;;;;;22.70;10.93;;;-0.30;99.90;;;;;;5093007;28;20054;-73
2021/12/11 08:31:44;;;;;;;16.27;9.60;;;-0.30;99.90;;;;;;5092429;28;20043;-73
2021/12/11 08:34:11;;;;;;;24.40;12.63;;;-0.10;99.90;;;;;;5091374;28;20488;-74
2021/12/11 08:36:38;;;;;;;16.73;10.63;;;-0.10;99.90;;;;;;5091916;28;20043;-74
2021/12/11 08:39:07;;;;;;;10.53;6.80;;;-0.20;99.90;;;;;;5092124;28;20097;-74
2021/12/11 08:41:35;;;;;;;20.03;9.20;;;-0.10;99.90;;;;;;5091592;28;20047;-72
2021/12/11 08:44:09;;;;;;;24.17;8.40;;;-0.10;99.90;;;;;;5091282;28;20108;-73
2021/12/11 08:46:37;;;;;;;24.10;11.27;;;0.00;99.90;;;;;;5091932;28;20044;-72
2021/12/11 08:49:07;;;;;;;18.90;8.53;;;0.10;99.90;;;;;;5091964;28;20048;-72
2021/12/11 08:51:38;;;;;;;21.83;9.13;;;0.10;99.90;;;;;;5092191;28;20080;-74
2021/12/11 08:54:05;;;;;;;17.07;9.20;;;0.00;99.90;;;;;;5091225;28;20051;-74
2021/12/11 08:56:34;;;;;;;29.43;10.43;;;0.00;99.90;;;;;;5091612;28;20058;-75
2021/12/11 08:59:01;;;;;;;23.47;10.67;;;0.10;99.90;;;;;;5091653;28;20063;-75
2021/12/11 09:01:37;;;;;;;19.23;7.70;;;0.00;99.90;;;;;;5091820;28;20047;-75
2021/12/11 09:04:10;;;;;;;17.37;10.67;;;-0.10;99.90;;;;;;5091257;28;20040;-76
2021/12/11 09:06:42;;;;;;;27.37;9.87;;;0.00;99.90;;;;;;5091965;28;20044;-73
2021/12/11 09:09:12;;;;;;;18.00;9.70;;;0.00;99.90;;;;;;5091801;28;20063;-73
2021/12/11 09:11:41;;;;;;;17.83;10.17;;;0.00;99.90;;;;;;5091572;28;20044;-73
2021/12/11 09:14:11;;;;;;;18.57;10.70;;;0.00;99.90;;;;;;5091242;28;20048;-73
2021/12/11 09:16:45;;;;;;;23.03;11.63;;;0.00;99.90;;;;;;5091874;28;20056;-73
2021/12/11 09:19:15;;;;;;;22.60;11.33;;;0.00;99.90;;;;;;5091952;28;20078;-72
2021/12/11 09:21:50;;;;;;;22.63;12.00;;;0.10;99.90;;;;;;5091521;28;20048;-74
2021/12/11 09:24:24;;;;;;;29.50;15.67;;;0.20;99.90;;;;;;5090944;28;20101;-74
2021/12/11 09:26:55;;;;;;;21.60;11.53;;;0.40;99.90;;;;;;5091861;28;20048;-73
2021/12/11 09:29:26;;;;;;;19.60;11.97;;;0.50;99.90;;;;;;5091503;28;20102;-74
2021/12/11 09:32:05;;;;;;;30.47;13.93;;;0.50;99.90;;;;;;5091759;28;20044;-74
2021/12/11 09:34:39;;;;;;;20.67;11.93;;;0.40;99.90;;;;;;5090887;28;20052;-73
2021/12/11 09:37:07;;;;;;;22.80;12.67;;;0.40;99.90;;;;;;5091478;28;20052;-74
2021/12/11 09:39:38;;;;;;;25.00;10.37;;;0.30;99.90;;;;;;5091363;28;20110;-74
2021/12/11 09:42:04;;;;;;;22.27;13.03;;;0.30;99.90;;;;;;5093527;28;20048;-74
2021/12/11 09:44:37;;;;;;;26.70;15.23;;;0.40;99.90;;;;;;5090872;28;20055;-74
2021/12/11 09:47:07;;;;;;;16.20;8.90;;;0.40;99.90;;;;;;5091227;28;20059;-72
2021/12/11 09:49:37;;;;;;;17.90;11.27;;;0.30;99.90;;;;;;5091436;28;20048;-73
2021/12/11 09:52:15;;;;;;;19.10;10.50;;;0.30;99.90;;;;;;5091589;28;20073;-73
2021/12/11 09:54:43;;;;;;;18.23;9.90;;;0.30;99.90;;;;;;5093582;28;20048;-74
2021/12/11 09:57:14;;;;;;;17.30;10.57;;;0.30;99.90;;;;;;5094537;28;20044;-73
2021/12/11 09:59:44;;;;;;;23.17;10.23;;;0.40;99.90;;;;;;5094669;28;20541;-72
2021/12/11 10:02:14;;;;;;;20.90;11.80;;;0.40;99.90;;;;;;5095101;28;20089;-76
2021/12/11 10:04:47;;;;;;;19.93;9.20;;;0.40;99.90;;;;;;5095859;28;20454;-75
2021/12/11 10:07:27;;;;;;;17.40;10.87;;;0.40;99.90;;;;;;5095602;28;20117;-75
2021/12/11 10:09:59;;;;;;;23.20;12.80;;;0.40;99.90;;;;;;5094467;28;20414;-73
2021/12/11 10:12:28;;;;;;;32.78;17.60;;;0.50;99.90;;;;;;5094600;28;20492;-74
2021/12/11 10:15:00;;;;;;;26.37;14.77;;;0.60;99.90;;;;;;5094076;28;20451;-75
2021/12/11 10:17:34;;;;;;;22.73;9.83;;;0.70;99.90;;;;;;5094619;28;20094;-74
2021/12/11 10:20:04;;;;;;;17.50;11.23;;;0.70;99.90;;;;;;5094503;28;20393;-75
2021/12/11 10:22:35;;;;;;;19.20;9.17;;;0.70;99.90;;;;;;5094048;28;20048;-74
2021/12/11 10:25:06;;;;;;;18.77;10.27;;;0.80;99.90;;;;;;5093738;28;20557;-75
2021/12/11 10:27:34;;;;;;;20.48;11.50;;;0.80;99.90;;;;;;5094114;28;20044;-74
2021/12/11 10:30:07;;;;;;;17.03;9.43;;;0.90;99.90;;;;;;5094364;28;20093;-74
2021/12/11 10:32:34;;;;;;;21.57;11.07;;;0.80;99.90;;;;;;5094312;28;20051;-72
2021/12/11 10:35:06;;;;;;;21.07;9.90;;;0.90;99.90;;;;;;5093583;28;20048;-74
2021/12/11 10:37:36;;;;;;;23.87;11.90;;;0.90;99.90;;;;;;5094365;28;20044;-74
2021/12/11 10:40:08;;;;;;;22.10;11.60;;;1.00;99.90;;;;;;5094152;28;20040;-73
2021/12/11 10:42:34;;;;;;;23.30;12.32;;;0.80;99.90;;;;;;5094393;28;20463;-73
2021/12/11 10:45:04;;;;;;;23.30;13.93;;;0.90;99.90;;;;;;5093916;28;20052;-74
2021/12/11 10:47:34;;;;;;;27.27;11.50;;;0.90;99.90;;;;;;5093848;28;20052;-75
2021/12/11 10:50:02;;;;;;;20.83;11.60;;;0.70;99.90;;;;;;5096875;28;20051;-74
2021/12/11 10:52:31;;;;;;;30.97;13.33;;;0.70;99.90;;;;;;5094695;28;20094;-72
2021/12/11 10:55:02;;;;;;;23.10;11.07;;;0.70;99.90;;;;;;5093094;28;20048;-74
2021/12/11 10:57:29;;;;;;;17.53;10.13;;;0.70;99.90;;;;;;5094040;28;20089;-73
2021/12/11 11:00:09;;;;;;;27.33;13.40;;;0.70;99.90;;;;;;5093645;28;20389;-74
2021/12/11 11:02:36;;;;;;;17.77;11.77;;;0.80;99.90;;;;;;5093385;28;20040;-74
2021/12/11 11:05:13;;;;;;;18.90;11.20;;;0.90;99.90;;;;;;5093054;28;20077;-74
2021/12/11 11:07:40;;;;;;;20.70;13.47;;;0.90;99.90;;;;;;5093627;28;20055;-74
2021/12/11 11:10:12;;;;;;;15.83;10.80;;;0.90;99.90;;;;;;5093431;28;20048;-74
2021/12/11 11:12:39;;;;;;;;;;;0.80;99.90;;;;;;5094095;28;20048;-72
2021/12/11 11:15:08;;;;;;;19.33;10.47;;;0.90;99.90;;;;;;5092989;28;19924;-75
2021/12/11 11:17:35;;;;;;;17.80;12.33;;;0.90;99.90;;;;;;5093330;28;20048;-75
2021/12/11 11:20:09;;;;;;;26.70;14.27;;;0.90;99.90;;;;;;5093510;28;20055;-74
2021/12/11 11:22:39;;;;;;;18.30;10.97;;;1.10;99.90;;;;;;5093310;28;20117;-74
2021/12/11 11:25:11;;;;;;;21.10;12.00;;;1.10;99.90;;;;;;5092927;28;20044;-75
2021/12/11 11:27:40;;;;;;;28.13;11.70;;;1.20;99.90;;;;;;5093697;28;20474;-73
2021/12/11 11:30:12;;;;;;;18.33;10.80;;;1.20;99.90;;;;;;5094281;28;20506;-72
2021/12/11 11:32:39;;;;;;;29.00;12.27;;;1.00;99.90;;;;;;5094202;28;20572;-72
2021/12/11 11:35:10;;;;;;;25.80;11.83;;;0.90;99.90;;;;;;5093356;28;20056;-73
2021/12/11 11:37:37;;;;;;;23.02;11.85;;;0.80;99.90;;;;;;5094201;28;20048;-73
2021/12/11 11:40:08;;;;;;;28.00;13.03;;;0.90;99.90;;;;;;5094404;28;20052;-74
2021/12/11 11:42:35;;;;;;;17.10;11.63;;;1.00;99.90;;;;;;5093972;28;20044;-74
2021/12/11 11:45:06;;;;;;;19.53;12.07;;;0.80;99.90;;;;;;5092570;28;20130;-75
2021/12/11 11:47:34;;;;;;;25.60;11.93;;;0.90;99.90;;;;;;5093091;28;20048;-74
2021/12/11 11:50:02;;;;;;;21.13;13.40;;;0.90;99.90;;;;;;5092822;28;20087;-74
2021/12/11 11:52:29;;;;;;;25.30;13.10;;;0.90;99.90;;;;;;5092605;28;20044;-75
2021/12/11 11:54:59;;;;;;;21.97;10.73;;;0.90;99.90;;;;;;5092006;28;20044;-73
2021/12/11 11:57:29;;;;;;;20.93;12.27;;;0.80;99.90;;;;;;5092544;28;20453;-75
2021/12/11 12:00:00;;;;;;;16.60;9.83;;;0.80;99.90;;;;;;5092583;28;20044;-74
2021/12/11 12:02:31;;;;;;;23.63;9.47;;;0.60;99.90;;;;;;5092374;28;20404;-74
2021/12/11 12:05:01;;;;;;;13.23;10.60;;;0.60;99.90;;;;;;5091908;28;20557;-74
2021/12/11 12:07:30;;;;;;;21.77;11.03;;;0.60;99.90;;;;;;5092522;28;20086;-74
2021/12/11 12:10:01;;;;;;;33.67;14.40;;;0.60;99.90;;;;;;5092451;28;20043;-74
2021/12/11 12:12:28;;;;;;;20.47;10.07;;;0.50;99.90;;;;;;5092614;28;20128;-74
2021/12/11 12:15:00;;;;;;;19.37;10.97;;;0.30;99.90;;;;;;5091825;28;20047;-74
2021/12/11 12:17:30;;;;;;;17.30;12.07;;;0.40;99.90;;;;;;5092331;28;20040;-76
2021/12/11 12:20:00;;;;;;;22.73;12.30;;;0.30;99.90;;;;;;5092382;28;20044;-75
2021/12/11 12:22:28;;;;;;;23.13;11.63;;;0.30;99.90;;;;;;5092016;28;20492;-73
2021/12/11 12:24:57;;;;;;;30.80;14.90;;;0.20;99.90;;;;;;5091642;28;20412;-75
2021/12/11 12:27:30;;;;;;;17.80;11.17;;;0.20;99.90;;;;;;5092127;28;20051;-73
2021/12/11 12:29:59;;;;;;;22.67;11.57;;;0.20;99.90;;;;;;5092297;28;20052;-74
2021/12/11 12:32:29;;;;;;;34.03;16.77;;;0.20;99.90;;;;;;5092191;28;20043;-75
2021/12/11 12:35:01;;;;;;;18.50;11.53;;;0.30;99.90;;;;;;5091568;28;20043;-75
2021/12/11 12:37:29;;;;;;;24.30;12.23;;;0.40;99.90;;;;;;5092211;28;20302;-74
2021/12/11 12:39:59;;;;;;;16.50;10.20;;;0.50;99.90;;;;;;5092459;28;20048;-74
2021/12/11 12:42:30;;;;;;;17.23;11.50;;;0.50;99.90;;;;;;5095569;28;20048;-74
2021/12/11 12:45:02;;;;;;;20.60;11.82;;;0.50;99.90;;;;;;5093635;28;20076;-74
2021/12/11 12:47:34;;;;;;;23.20;10.63;;;0.40;99.90;;;;;;5091886;28;20085;-74
2021/12/11 12:50:09;;;;;;;21.37;11.93;;;0.40;99.90;;;;;;5091800;28;20194;-74
2021/12/11 12:52:42;;;;;;;15.03;9.77;;;0.20;99.90;;;;;;5091933;28;20044;-74